sensor_id;sensor_type;location;lat;lon;timestamp;temperature;humidity
44537;DHT22;30245;51.966;6.292;2022-09-28T00:01:16;14.50;61.90
44537;DHT22;30245;51.966;6.292;2022-09-28T00:03:44;14.50;61.70
44537;DHT22;30245;51.966;6.292;2022-09-28T00:06:12;14.50;61.80
44537;DHT22;30245;51.966;6.292;2022-09-28T00:08:38;14.50;61.80
44537;DHT22;30245;51.966;6.292;2022-09-28T00:11:06;14.50;61.70
44537;DHT22;30245;51.966;6.292;2022-09-28T00:13:33;14.50;61.70
44537;DHT22;30245;51.966;6.292;2022-09-28T00:18:28;14.60;61.50
44537;DHT22;30245;51.966;6.292;2022-09-28T00:21:05;14.70;61.40
44537;DHT22;30245;51.966;6.292;2022-09-28T00:23:31;14.70;61.20
44537;DHT22;30245;51.966;6.292;2022-09-28T00:26:04;14.70;61.30
44537;DHT22;30245;51.966;6.292;2022-09-28T00:28:30;14.60;61.50
44537;DHT22;30245;51.966;6.292;2022-09-28T00:30:57;14.60;61.60
44537;DHT22;30245;51.966;6.292;2022-09-28T00:33:23;14.60;61.70
44537;DHT22;30245;51.966;6.292;2022-09-28T00:35:58;14.50;61.80
44537;DHT22;30245;51.966;6.292;2022-09-28T00:38:28;14.50;61.90
44537;DHT22;30245;51.966;6.292;2022-09-28T00:40:54;14.50;61.90
44537;DHT22;30245;51.966;6.292;2022-09-28T00:43:21;14.60;62.00
44537;DHT22;30245;51.966;6.292;2022-09-28T00:45:55;14.50;62.00
44537;DHT22;30245;51.966;6.292;2022-09-28T00:48:23;14.50;62.00
44537;DHT22;30245;51.966;6.292;2022-09-28T00:50:50;14.50;62.20
44537;DHT22;30245;51.966;6.292;2022-09-28T00:53:25;14.60;62.20
44537;DHT22;30245;51.966;6.292;2022-09-28T00:55:57;14.60;62.10
44537;DHT22;30245;51.966;6.292;2022-09-28T00:58:26;14.60;61.90
44537;DHT22;30245;51.966;6.292;2022-09-28T01:00:55;14.60;62.00
44537;DHT22;30245;51.966;6.292;2022-09-28T01:03:23;14.60;62.00
44537;DHT22;30245;51.966;6.292;2022-09-28T01:05:50;14.70;62.00
44537;DHT22;30245;51.966;6.292;2022-09-28T01:08:17;14.70;62.00
44537;DHT22;30245;51.966;6.292;2022-09-28T01:10:45;14.60;62.00
44537;DHT22;30245;51.966;6.292;2022-09-28T01:13:12;14.60;62.00
44537;DHT22;30245;51.966;6.292;2022-09-28T01:15:46;14.60;62.00
44537;DHT22;30245;51.966;6.292;2022-09-28T01:21:17;14.60;62.10
44537;DHT22;30245;51.966;6.292;2022-09-28T01:34:38;14.60;62.10
44537;DHT22;30245;51.966;6.292;2022-09-28T01:37:08;14.70;62.10
44537;DHT22;30245;51.966;6.292;2022-09-28T01:39:41;14.70;62.00
44537;DHT22;30245;51.966;6.292;2022-09-28T01:42:13;14.80;61.90
44537;DHT22;30245;51.966;6.292;2022-09-28T01:44:44;14.80;61.80
44537;DHT22;30245;51.966;6.292;2022-09-28T01:47:14;14.70;61.70
44537;DHT22;30245;51.966;6.292;2022-09-28T01:49:54;14.70;61.90
44537;DHT22;30245;51.966;6.292;2022-09-28T01:52:29;14.60;62.10
44537;DHT22;30245;51.966;6.292;2022-09-28T01:55:05;14.60;62.30
44537;DHT22;30245;51.966;6.292;2022-09-28T01:57:44;14.60;63.00
44537;DHT22;30245;51.966;6.292;2022-09-28T02:00:14;14.50;62.40
44537;DHT22;30245;51.966;6.292;2022-09-28T02:05:32;14.60;62.30
44537;DHT22;30245;51.966;6.292;2022-09-28T02:10:59;14.70;62.20
44537;DHT22;30245;51.966;6.292;2022-09-28T02:13:36;14.60;62.30
44537;DHT22;30245;51.966;6.292;2022-09-28T02:16:10;14.60;62.40
44537;DHT22;30245;51.966;6.292;2022-09-28T02:18:38;14.60;62.40
44537;DHT22;30245;51.966;6.292;2022-09-28T02:21:09;14.70;62.30
44537;DHT22;30245;51.966;6.292;2022-09-28T02:23:37;14.70;62.10
44537;DHT22;30245;51.966;6.292;2022-09-28T02:26:05;14.70;62.20
44537;DHT22;30245;51.966;6.292;2022-09-28T02:28:33;14.80;62.30
44537;DHT22;30245;51.966;6.292;2022-09-28T02:30:59;14.80;62.10
44537;DHT22;30245;51.966;6.292;2022-09-28T02:33:36;14.80;62.00
44537;DHT22;30245;51.966;6.292;2022-09-28T02:36:03;14.70;62.00
44537;DHT22;30245;51.966;6.292;2022-09-28T02:38:30;14.80;62.10
44537;DHT22;30245;51.966;6.292;2022-09-28T02:57:27;14.70;62.40
44537;DHT22;30245;51.966;6.292;2022-09-28T03:00:11;14.70;62.20
44537;DHT22;30245;51.966;6.292;2022-09-28T03:03:04;14.60;62.10
44537;DHT22;30245;51.966;6.292;2022-09-28T03:05:39;14.50;62.20
44537;DHT22;30245;51.966;6.292;2022-09-28T03:11:06;14.30;62.70
44537;DHT22;30245;51.966;6.292;2022-09-28T03:13:34;14.30;62.90
44537;DHT22;30245;51.966;6.292;2022-09-28T03:16:14;14.40;62.80
44537;DHT22;30245;51.966;6.292;2022-09-28T03:18:40;14.40;62.70
44537;DHT22;30245;51.966;6.292;2022-09-28T03:21:06;14.40;62.60
44537;DHT22;30245;51.966;6.292;2022-09-28T03:23:32;14.40;62.60
44537;DHT22;30245;51.966;6.292;2022-09-28T03:25:58;14.40;62.70
44537;DHT22;30245;51.966;6.292;2022-09-28T03:28:24;14.40;62.60
44537;DHT22;30245;51.966;6.292;2022-09-28T03:30:50;14.50;62.60
44537;DHT22;30245;51.966;6.292;2022-09-28T03:33:16;14.50;62.50
44537;DHT22;30245;51.966;6.292;2022-09-28T03:35:45;14.60;62.50
44537;DHT22;30245;51.966;6.292;2022-09-28T03:38:11;14.60;62.30
44537;DHT22;30245;51.966;6.292;2022-09-28T03:40:36;14.60;62.20
44537;DHT22;30245;51.966;6.292;2022-09-28T03:43:02;14.60;62.10
44537;DHT22;30245;51.966;6.292;2022-09-28T03:45:27;14.60;62.10
44537;DHT22;30245;51.966;6.292;2022-09-28T03:47:53;14.60;62.30
44537;DHT22;30245;51.966;6.292;2022-09-28T03:50:19;14.60;62.30
44537;DHT22;30245;51.966;6.292;2022-09-28T03:52:44;14.60;62.40
44537;DHT22;30245;51.966;6.292;2022-09-28T03:55:10;14.60;62.40
44537;DHT22;30245;51.966;6.292;2022-09-28T03:57:36;14.60;62.50
44537;DHT22;30245;51.966;6.292;2022-09-28T04:00:03;14.60;62.60
44537;DHT22;30245;51.966;6.292;2022-09-28T04:02:30;14.50;62.60
44537;DHT22;30245;51.966;6.292;2022-09-28T04:04:55;14.50;62.60
44537;DHT22;30245;51.966;6.292;2022-09-28T04:07:21;14.50;62.70
44537;DHT22;30245;51.966;6.292;2022-09-28T04:09:47;14.50;62.60
44537;DHT22;30245;51.966;6.292;2022-09-28T04:12:12;14.50;62.70
44537;DHT22;30245;51.966;6.292;2022-09-28T04:14:38;14.60;62.90
44537;DHT22;30245;51.966;6.292;2022-09-28T04:17:04;14.60;62.80
44537;DHT22;30245;51.966;6.292;2022-09-28T04:19:30;14.60;62.60
44537;DHT22;30245;51.966;6.292;2022-09-28T04:21:56;14.70;62.60
44537;DHT22;30245;51.966;6.292;2022-09-28T04:24:21;14.70;62.50
44537;DHT22;30245;51.966;6.292;2022-09-28T04:26:48;14.70;62.40
44537;DHT22;30245;51.966;6.292;2022-09-28T04:29:14;14.70;62.40
44537;DHT22;30245;51.966;6.292;2022-09-28T04:31:47;14.70;62.30
44537;DHT22;30245;51.966;6.292;2022-09-28T04:34:18;14.70;62.20
44537;DHT22;30245;51.966;6.292;2022-09-28T04:36:45;14.70;62.20
44537;DHT22;30245;51.966;6.292;2022-09-28T04:39:12;14.70;62.40
44537;DHT22;30245;51.966;6.292;2022-09-28T04:41:38;14.70;62.40
44537;DHT22;30245;51.966;6.292;2022-09-28T04:44:04;14.70;62.30
44537;DHT22;30245;51.966;6.292;2022-09-28T04:46:29;14.70;62.30
44537;DHT22;30245;51.966;6.292;2022-09-28T04:48:55;14.70;62.20
44537;DHT22;30245;51.966;6.292;2022-09-28T04:51:21;14.70;62.10
44537;DHT22;30245;51.966;6.292;2022-09-28T04:53:46;14.70;62.20
44537;DHT22;30245;51.966;6.292;2022-09-28T04:56:13;14.70;62.20
44537;DHT22;30245;51.966;6.292;2022-09-28T04:58:40;14.70;62.10
44537;DHT22;30245;51.966;6.292;2022-09-28T05:01:09;14.80;62.10
44537;DHT22;30245;51.966;6.292;2022-09-28T05:03:34;14.80;62.10
44537;DHT22;30245;51.966;6.292;2022-09-28T05:06:00;14.80;62.10
44537;DHT22;30245;51.966;6.292;2022-09-28T05:08:26;14.80;62.10
44537;DHT22;30245;51.966;6.292;2022-09-28T05:11:12;14.90;62.00
44537;DHT22;30245;51.966;6.292;2022-09-28T05:13:40;14.90;61.90
44537;DHT22;30245;51.966;6.292;2022-09-28T05:16:07;14.90;61.80
44537;DHT22;30245;51.966;6.292;2022-09-28T05:18:33;14.90;61.70
44537;DHT22;30245;51.966;6.292;2022-09-28T05:20:59;14.90;61.70
44537;DHT22;30245;51.966;6.292;2022-09-28T05:23:25;14.90;61.80
44537;DHT22;30245;51.966;6.292;2022-09-28T05:25:51;14.80;61.90
44537;DHT22;30245;51.966;6.292;2022-09-28T05:28:25;14.80;62.00
44537;DHT22;30245;51.966;6.292;2022-09-28T05:30:51;14.80;62.00
44537;DHT22;30245;51.966;6.292;2022-09-28T05:33:17;14.80;62.60
44537;DHT22;30245;51.966;6.292;2022-09-28T05:35:42;14.90;61.90
44537;DHT22;30245;51.966;6.292;2022-09-28T05:38:08;14.80;61.80
44537;DHT22;30245;51.966;6.292;2022-09-28T05:40:34;14.90;61.90
44537;DHT22;30245;51.966;6.292;2022-09-28T05:43:00;14.90;61.60
44537;DHT22;30245;51.966;6.292;2022-09-28T05:45:27;14.90;62.30
44537;DHT22;30245;51.966;6.292;2022-09-28T05:47:53;14.90;61.60
44537;DHT22;30245;51.966;6.292;2022-09-28T05:50:19;14.90;61.60
44537;DHT22;30245;51.966;6.292;2022-09-28T05:52:45;14.90;61.60
44537;DHT22;30245;51.966;6.292;2022-09-28T05:55:11;14.90;61.70
44537;DHT22;30245;51.966;6.292;2022-09-28T05:57:37;14.90;61.60
44537;DHT22;30245;51.966;6.292;2022-09-28T06:00:04;14.90;61.60
44537;DHT22;30245;51.966;6.292;2022-09-28T06:02:32;14.90;61.50
44537;DHT22;30245;51.966;6.292;2022-09-28T06:04:58;14.90;61.60
44537;DHT22;30245;51.966;6.292;2022-09-28T06:07:23;14.90;61.60
44537;DHT22;30245;51.966;6.292;2022-09-28T06:09:49;14.90;61.50
44537;DHT22;30245;51.966;6.292;2022-09-28T06:12:14;14.90;61.60
44537;DHT22;30245;51.966;6.292;2022-09-28T06:14:40;14.90;61.70
44537;DHT22;30245;51.966;6.292;2022-09-28T06:17:06;14.80;61.60
44537;DHT22;30245;51.966;6.292;2022-09-28T06:19:31;14.80;61.60
44537;DHT22;30245;51.966;6.292;2022-09-28T06:21:57;14.80;61.60
44537;DHT22;30245;51.966;6.292;2022-09-28T06:24:23;14.80;61.70
44537;DHT22;30245;51.966;6.292;2022-09-28T06:26:49;14.80;61.90
44537;DHT22;30245;51.966;6.292;2022-09-28T06:29:14;14.70;61.90
44537;DHT22;30245;51.966;6.292;2022-09-28T06:31:44;14.60;62.00
44537;DHT22;30245;51.966;6.292;2022-09-28T06:34:10;14.60;62.10
44537;DHT22;30245;51.966;6.292;2022-09-28T06:36:37;14.60;62.10
44537;DHT22;30245;51.966;6.292;2022-09-28T06:39:03;14.70;62.10
44537;DHT22;30245;51.966;6.292;2022-09-28T06:41:28;14.70;62.10
44537;DHT22;30245;51.966;6.292;2022-09-28T06:43:54;14.70;62.10
44537;DHT22;30245;51.966;6.292;2022-09-28T06:46:20;14.70;62.80
44537;DHT22;30245;51.966;6.292;2022-09-28T06:48:46;14.70;62.00
44537;DHT22;30245;51.966;6.292;2022-09-28T06:51:12;14.70;62.20
44537;DHT22;30245;51.966;6.292;2022-09-28T06:53:38;14.60;62.10
44537;DHT22;30245;51.966;6.292;2022-09-28T06:56:03;14.60;62.20
44537;DHT22;30245;51.966;6.292;2022-09-28T06:58:31;14.60;62.30
44537;DHT22;30245;51.966;6.292;2022-09-28T07:00:56;14.60;62.40
44537;DHT22;30245;51.966;6.292;2022-09-28T07:03:25;14.60;62.50
44537;DHT22;30245;51.966;6.292;2022-09-28T07:05:55;14.60;62.70
44537;DHT22;30245;51.966;6.292;2022-09-28T07:08:23;14.60;62.70
44537;DHT22;30245;51.966;6.292;2022-09-28T07:10:50;14.60;62.70
44537;DHT22;30245;51.966;6.292;2022-09-28T07:13:24;14.60;62.70
44537;DHT22;30245;51.966;6.292;2022-09-28T07:16:08;14.70;62.60
44537;DHT22;30245;51.966;6.292;2022-09-28T07:18:33;14.80;62.40
44537;DHT22;30245;51.966;6.292;2022-09-28T07:20:59;14.90;62.20
44537;DHT22;30245;51.966;6.292;2022-09-28T07:23:27;15.00;62.10
44537;DHT22;30245;51.966;6.292;2022-09-28T07:25:53;15.10;62.10
44537;DHT22;30245;51.966;6.292;2022-09-28T07:28:19;15.10;61.90
44537;DHT22;30245;51.966;6.292;2022-09-28T07:30:46;15.00;61.90
44537;DHT22;30245;51.966;6.292;2022-09-28T07:33:13;15.10;62.10
44537;DHT22;30245;51.966;6.292;2022-09-28T07:35:40;15.10;62.00
44537;DHT22;30245;51.966;6.292;2022-09-28T07:38:07;15.30;62.00
44537;DHT22;30245;51.966;6.292;2022-09-28T07:40:35;15.40;61.70
44537;DHT22;30245;51.966;6.292;2022-09-28T07:43:19;15.50;61.40
44537;DHT22;30245;51.966;6.292;2022-09-28T07:45:50;15.60;62.00
44537;DHT22;30245;51.966;6.292;2022-09-28T07:48:17;15.60;61.20
44537;DHT22;30245;51.966;6.292;2022-09-28T07:50:47;15.50;61.30
44537;DHT22;30245;51.966;6.292;2022-09-28T07:53:14;15.50;61.40
44537;DHT22;30245;51.966;6.292;2022-09-28T07:55:40;15.60;61.30
44537;DHT22;30245;51.966;6.292;2022-09-28T07:58:05;15.60;61.40
44537;DHT22;30245;51.966;6.292;2022-09-28T08:00:31;15.70;61.30
44537;DHT22;30245;51.966;6.292;2022-09-28T08:03:01;15.80;61.20
44537;DHT22;30245;51.966;6.292;2022-09-28T08:05:28;15.90;61.00
44537;DHT22;30245;51.966;6.292;2022-09-28T08:07:55;15.90;61.00
44537;DHT22;30245;51.966;6.292;2022-09-28T08:10:23;16.10;60.70
44537;DHT22;30245;51.966;6.292;2022-09-28T08:12:53;16.20;60.60
44537;DHT22;30245;51.966;6.292;2022-09-28T08:15:19;16.30;60.40
44537;DHT22;30245;51.966;6.292;2022-09-28T08:17:46;16.80;60.60
44537;DHT22;30245;51.966;6.292;2022-09-28T08:20:12;17.50;59.70
44537;DHT22;30245;51.966;6.292;2022-09-28T08:23:04;18.30;58.50
44537;DHT22;30245;51.966;6.292;2022-09-28T08:25:31;18.90;57.10
44537;DHT22;30245;51.966;6.292;2022-09-28T08:27:57;19.10;56.40
44537;DHT22;30245;51.966;6.292;2022-09-28T08:30:24;19.20;56.20
44537;DHT22;30245;51.966;6.292;2022-09-28T08:32:51;19.10;55.80
44537;DHT22;30245;51.966;6.292;2022-09-28T08:35:17;19.10;55.60
44537;DHT22;30245;51.966;6.292;2022-09-28T08:37:42;19.10;55.80
44537;DHT22;30245;51.966;6.292;2022-09-28T08:40:20;19.10;56.10
44537;DHT22;30245;51.966;6.292;2022-09-28T08:42:50;19.20;56.70
44537;DHT22;30245;51.966;6.292;2022-09-28T08:45:19;19.40;55.90
44537;DHT22;30245;51.966;6.292;2022-09-28T08:48:10;19.80;56.00
44537;DHT22;30245;51.966;6.292;2022-09-28T08:51:08;20.70;54.50
44537;DHT22;30245;51.966;6.292;2022-09-28T08:56:31;22.60;50.60
44537;DHT22;30245;51.966;6.292;2022-09-28T08:59:05;23.30;49.20
44537;DHT22;30245;51.966;6.292;2022-09-28T09:01:41;23.80;47.80
44537;DHT22;30245;51.966;6.292;2022-09-28T09:04:11;24.30;46.60
44537;DHT22;30245;51.966;6.292;2022-09-28T09:25:45;24.00;44.60
44537;DHT22;30245;51.966;6.292;2022-09-28T09:28:30;24.00;44.70
44537;DHT22;30245;51.966;6.292;2022-09-28T09:33:42;24.40;44.10
44537;DHT22;30245;51.966;6.292;2022-09-28T09:39:12;25.00;42.90
44537;DHT22;30245;51.966;6.292;2022-09-28T09:42:44;25.50;43.00
44537;DHT22;30245;51.966;6.292;2022-09-28T09:47:23;25.70;40.60
44537;DHT22;30245;51.966;6.292;2022-09-28T09:50:10;25.20;40.80
44537;DHT22;30245;51.966;6.292;2022-09-28T09:55:37;23.90;42.30
44537;DHT22;30245;51.966;6.292;2022-09-28T09:58:28;23.90;42.50
44537;DHT22;30245;51.966;6.292;2022-09-28T10:01:22;24.40;42.20
44537;DHT22;30245;51.966;6.292;2022-09-28T10:03:47;24.50;41.40
44537;DHT22;30245;51.966;6.292;2022-09-28T10:06:25;24.40;41.70
44537;DHT22;30245;51.966;6.292;2022-09-28T10:09:04;24.60;41.50
44537;DHT22;30245;51.966;6.292;2022-09-28T10:11:34;24.90;41.10
44537;DHT22;30245;51.966;6.292;2022-09-28T10:14:02;24.90;41.00
44537;DHT22;30245;51.966;6.292;2022-09-28T10:16:29;24.60;41.20
44537;DHT22;30245;51.966;6.292;2022-09-28T10:18:55;24.40;41.30
44537;DHT22;30245;51.966;6.292;2022-09-28T10:21:21;24.00;41.70
44537;DHT22;30245;51.966;6.292;2022-09-28T10:23:58;23.70;42.00
44537;DHT22;30245;51.966;6.292;2022-09-28T10:26:47;23.40;42.30
44537;DHT22;30245;51.966;6.292;2022-09-28T10:29:25;23.10;42.40
44537;DHT22;30245;51.966;6.292;2022-09-28T10:31:52;22.90;42.70
44537;DHT22;30245;51.966;6.292;2022-09-28T10:34:25;22.80;43.00
44537;DHT22;30245;51.966;6.292;2022-09-28T10:39:32;22.50;42.80
44537;DHT22;30245;51.966;6.292;2022-09-28T10:42:01;22.40;43.00
44537;DHT22;30245;51.966;6.292;2022-09-28T10:44:31;22.30;43.10
44537;DHT22;30245;51.966;6.292;2022-09-28T10:47:03;22.10;43.50
44537;DHT22;30245;51.966;6.292;2022-09-28T10:49:39;22.00;43.60
44537;DHT22;30245;51.966;6.292;2022-09-28T10:52:35;22.30;43.70
44537;DHT22;30245;51.966;6.292;2022-09-28T10:55:14;22.50;42.90
44537;DHT22;30245;51.966;6.292;2022-09-28T10:57:47;22.60;42.80
44537;DHT22;30245;51.966;6.292;2022-09-28T11:00:31;22.60;42.80
44537;DHT22;30245;51.966;6.292;2022-09-28T11:02:58;22.60;42.60
44537;DHT22;30245;51.966;6.292;2022-09-28T11:05:25;22.40;42.70
44537;DHT22;30245;51.966;6.292;2022-09-28T11:07:52;22.30;42.80
44537;DHT22;30245;51.966;6.292;2022-09-28T11:10:26;22.20;43.00
44537;DHT22;30245;51.966;6.292;2022-09-28T11:12:53;22.00;43.20
44537;DHT22;30245;51.966;6.292;2022-09-28T11:15:21;21.90;43.20
44537;DHT22;30245;51.966;6.292;2022-09-28T11:17:49;21.80;43.30
44537;DHT22;30245;51.966;6.292;2022-09-28T11:25:24;21.50;43.60
44537;DHT22;30245;51.966;6.292;2022-09-28T11:30:31;21.40;43.90
44537;DHT22;30245;51.966;6.292;2022-09-28T11:33:14;21.30;43.90
44537;DHT22;30245;51.966;6.292;2022-09-28T11:35:59;21.20;44.00
44537;DHT22;30245;51.966;6.292;2022-09-28T11:38:38;21.20;44.40
44537;DHT22;30245;51.966;6.292;2022-09-28T11:43:59;21.00;44.70
44537;DHT22;30245;51.966;6.292;2022-09-28T11:46:57;21.10;44.90
44537;DHT22;30245;51.966;6.292;2022-09-28T11:49:42;21.00;44.80
44537;DHT22;30245;51.966;6.292;2022-09-28T11:52:25;21.00;45.00
44537;DHT22;30245;51.966;6.292;2022-09-28T11:54:58;21.00;44.90
44537;DHT22;30245;51.966;6.292;2022-09-28T11:57:29;21.00;44.90
44537;DHT22;30245;51.966;6.292;2022-09-28T12:00:00;21.10;44.80
44537;DHT22;30245;51.966;6.292;2022-09-28T12:02:38;21.10;44.80
44537;DHT22;30245;51.966;6.292;2022-09-28T12:05:54;21.20;44.80
44537;DHT22;30245;51.966;6.292;2022-09-28T12:08:08;21.20;44.50
44537;DHT22;30245;51.966;6.292;2022-09-28T12:10:56;21.20;44.30
44537;DHT22;30245;51.966;6.292;2022-09-28T12:13:31;21.40;44.40
44537;DHT22;30245;51.966;6.292;2022-09-28T12:18:45;21.70;43.70
44537;DHT22;30245;51.966;6.292;2022-09-28T12:23:59;22.00;43.40
44537;DHT22;30245;51.966;6.292;2022-09-28T12:29:52;22.40;42.80
44537;DHT22;30245;51.966;6.292;2022-09-28T12:34:57;22.50;42.60
44537;DHT22;30245;51.966;6.292;2022-09-28T12:40:26;22.40;42.40
44537;DHT22;30245;51.966;6.292;2022-09-28T12:46:18;22.30;42.60
44537;DHT22;30245;51.966;6.292;2022-09-28T12:59:19;22.10;42.80
44537;DHT22;30245;51.966;6.292;2022-09-28T13:18:11;21.80;42.30
44537;DHT22;30245;51.966;6.292;2022-09-28T13:23:28;22.40;42.10
44537;DHT22;30245;51.966;6.292;2022-09-28T13:26:06;22.50;41.70
44537;DHT22;30245;51.966;6.292;2022-09-28T13:28:36;22.80;41.50
44537;DHT22;30245;51.966;6.292;2022-09-28T13:31:03;23.10;41.10
44537;DHT22;30245;51.966;6.292;2022-09-28T13:33:40;23.20;40.70
44537;DHT22;30245;51.966;6.292;2022-09-28T13:36:40;23.40;40.50
44537;DHT22;30245;51.966;6.292;2022-09-28T13:39:34;23.70;40.40
44537;DHT22;30245;51.966;6.292;2022-09-28T13:42:01;23.90;39.80
44537;DHT22;30245;51.966;6.292;2022-09-28T13:44:41;24.10;39.70
44537;DHT22;30245;51.966;6.292;2022-09-28T13:47:21;24.30;39.30
44537;DHT22;30245;51.966;6.292;2022-09-28T14:01:12;24.90;38.30
44537;DHT22;30245;51.966;6.292;2022-09-28T14:06:41;25.10;37.50
44537;DHT22;30245;51.966;6.292;2022-09-28T14:11:58;25.00;37.50
44537;DHT22;30245;51.966;6.292;2022-09-28T14:14:44;24.80;37.40
44537;DHT22;30245;51.966;6.292;2022-09-28T14:19:52;24.40;37.80
44537;DHT22;30245;51.966;6.292;2022-09-28T14:25:29;24.00;38.10
44537;DHT22;30245;51.966;6.292;2022-09-28T14:33:29;23.90;38.40
44537;DHT22;30245;51.966;6.292;2022-09-28T14:36:06;23.70;38.60
44537;DHT22;30245;51.966;6.292;2022-09-28T14:38:45;23.60;38.90
44537;DHT22;30245;51.966;6.292;2022-09-28T14:41:33;23.50;39.20
44537;DHT22;30245;51.966;6.292;2022-09-28T14:44:09;23.30;39.20
44537;DHT22;30245;51.966;6.292;2022-09-28T14:46:45;23.10;39.50
44537;DHT22;30245;51.966;6.292;2022-09-28T14:57:43;22.30;40.90
44537;DHT22;30245;51.966;6.292;2022-09-28T15:00:07;22.10;40.80
44537;DHT22;30245;51.966;6.292;2022-09-28T15:02:38;21.80;40.90
44537;DHT22;30245;51.966;6.292;2022-09-28T15:05:23;21.60;41.20
44537;DHT22;30245;51.966;6.292;2022-09-28T15:07:53;21.40;41.50
44537;DHT22;30245;51.966;6.292;2022-09-28T15:10:30;21.10;42.10
44537;DHT22;30245;51.966;6.292;2022-09-28T15:12:58;20.80;42.60
44537;DHT22;30245;51.966;6.292;2022-09-28T15:15:34;20.60;43.10
44537;DHT22;30245;51.966;6.292;2022-09-28T15:20:58;20.50;43.70
44537;DHT22;30245;51.966;6.292;2022-09-28T15:23:34;20.30;43.70
44537;DHT22;30245;51.966;6.292;2022-09-28T15:26:00;20.20;44.10
44537;DHT22;30245;51.966;6.292;2022-09-28T15:28:26;20.10;44.50
44537;DHT22;30245;51.966;6.292;2022-09-28T15:31:00;20.10;44.60
44537;DHT22;30245;51.966;6.292;2022-09-28T15:33:28;20.10;44.90
44537;DHT22;30245;51.966;6.292;2022-09-28T15:36:27;20.00;45.10
44537;DHT22;30245;51.966;6.292;2022-09-28T15:39:02;19.70;45.60
44537;DHT22;30245;51.966;6.292;2022-09-28T15:41:29;19.60;46.00
44537;DHT22;30245;51.966;6.292;2022-09-28T15:46:41;19.40;46.70
44537;DHT22;30245;51.966;6.292;2022-09-28T15:49:28;19.40;46.90
44537;DHT22;30245;51.966;6.292;2022-09-28T15:51:59;19.30;47.20
44537;DHT22;30245;51.966;6.292;2022-09-28T15:54:30;19.20;47.50
44537;DHT22;30245;51.966;6.292;2022-09-28T15:57:01;19.20;47.80
44537;DHT22;30245;51.966;6.292;2022-09-28T15:59:36;19.10;48.10
44537;DHT22;30245;51.966;6.292;2022-09-28T16:04:53;18.90;48.90
44537;DHT22;30245;51.966;6.292;2022-09-28T16:07:53;18.90;49.10
44537;DHT22;30245;51.966;6.292;2022-09-28T16:12:45;18.90;49.00
44537;DHT22;30245;51.966;6.292;2022-09-28T16:15:14;18.90;49.30
44537;DHT22;30245;51.966;6.292;2022-09-28T16:17:52;18.80;49.60
44537;DHT22;30245;51.966;6.292;2022-09-28T16:22:52;18.60;50.00
44537;DHT22;30245;51.966;6.292;2022-09-28T16:25:23;18.60;50.00
44537;DHT22;30245;51.966;6.292;2022-09-28T16:27:51;18.50;50.20
44537;DHT22;30245;51.966;6.292;2022-09-28T16:30:19;18.50;50.40
44537;DHT22;30245;51.966;6.292;2022-09-28T16:32:54;18.40;50.60
44537;DHT22;30245;51.966;6.292;2022-09-28T16:35:25;18.40;50.80
44537;DHT22;30245;51.966;6.292;2022-09-28T16:38:12;18.30;50.80
44537;DHT22;30245;51.966;6.292;2022-09-28T16:40:41;18.30;50.90
44537;DHT22;30245;51.966;6.292;2022-09-28T16:45:44;18.30;50.80
44537;DHT22;30245;51.966;6.292;2022-09-28T16:48:14;18.30;50.70
44537;DHT22;30245;51.966;6.292;2022-09-28T16:50:45;18.30;50.80
44537;DHT22;30245;51.966;6.292;2022-09-28T16:53:13;18.30;50.80
44537;DHT22;30245;51.966;6.292;2022-09-28T16:55:58;18.30;50.80
44537;DHT22;30245;51.966;6.292;2022-09-28T16:58:24;18.30;50.80
44537;DHT22;30245;51.966;6.292;2022-09-28T17:00:50;18.20;50.80
44537;DHT22;30245;51.966;6.292;2022-09-28T17:03:18;18.20;51.00
44537;DHT22;30245;51.966;6.292;2022-09-28T17:05:45;18.20;51.10
44537;DHT22;30245;51.966;6.292;2022-09-28T17:08:15;18.20;51.20
44537;DHT22;30245;51.966;6.292;2022-09-28T17:10:57;18.10;51.30
44537;DHT22;30245;51.966;6.292;2022-09-28T17:13:25;18.10;51.30
44537;DHT22;30245;51.966;6.292;2022-09-28T17:15:59;18.10;52.00
44537;DHT22;30245;51.966;6.292;2022-09-28T17:18:26;18.10;51.50
44537;DHT22;30245;51.966;6.292;2022-09-28T17:20:54;18.00;51.50
44537;DHT22;30245;51.966;6.292;2022-09-28T17:23:21;18.00;51.60
44537;DHT22;30245;51.966;6.292;2022-09-28T17:25:46;18.00;51.60
44537;DHT22;30245;51.966;6.292;2022-09-28T17:28:22;18.00;51.50
44537;DHT22;30245;51.966;6.292;2022-09-28T17:30:48;18.00;51.70
44537;DHT22;30245;51.966;6.292;2022-09-28T17:33:14;18.00;51.70
44537;DHT22;30245;51.966;6.292;2022-09-28T17:35:40;18.00;51.80
44537;DHT22;30245;51.966;6.292;2022-09-28T17:38:12;18.00;51.90
44537;DHT22;30245;51.966;6.292;2022-09-28T17:40:38;17.90;51.90
44537;DHT22;30245;51.966;6.292;2022-09-28T17:43:04;17.90;51.90
44537;DHT22;30245;51.966;6.292;2022-09-28T17:45:31;17.90;52.00
44537;DHT22;30245;51.966;6.292;2022-09-28T17:47:57;17.90;52.10
44537;DHT22;30245;51.966;6.292;2022-09-28T17:50:29;17.90;52.10
44537;DHT22;30245;51.966;6.292;2022-09-28T17:52:57;17.80;52.10
44537;DHT22;30245;51.966;6.292;2022-09-28T17:55:28;17.80;52.20
44537;DHT22;30245;51.966;6.292;2022-09-28T17:57:54;17.70;52.40
44537;DHT22;30245;51.966;6.292;2022-09-28T18:00:20;17.70;52.60
44537;DHT22;30245;51.966;6.292;2022-09-28T18:02:47;17.70;52.50
44537;DHT22;30245;51.966;6.292;2022-09-28T18:05:15;17.70;52.60
44537;DHT22;30245;51.966;6.292;2022-09-28T18:07:41;17.70;52.50
44537;DHT22;30245;51.966;6.292;2022-09-28T18:10:21;17.80;52.50
44537;DHT22;30245;51.966;6.292;2022-09-28T18:12:48;17.70;52.50
44537;DHT22;30245;51.966;6.292;2022-09-28T18:15:14;17.70;53.20
44537;DHT22;30245;51.966;6.292;2022-09-28T18:17:40;17.70;52.60
44537;DHT22;30245;51.966;6.292;2022-09-28T18:20:08;17.70;52.70
44537;DHT22;30245;51.966;6.292;2022-09-28T18:22:34;17.70;52.70
44537;DHT22;30245;51.966;6.292;2022-09-28T18:24:59;17.70;53.10
44537;DHT22;30245;51.966;6.292;2022-09-28T18:27:27;17.60;52.90
44537;DHT22;30245;51.966;6.292;2022-09-28T18:29:53;17.60;53.00
44537;DHT22;30245;51.966;6.292;2022-09-28T18:32:19;17.50;53.20
44537;DHT22;30245;51.966;6.292;2022-09-28T18:34:44;17.40;53.30
44537;DHT22;30245;51.966;6.292;2022-09-28T18:37:10;17.40;53.40
44537;DHT22;30245;51.966;6.292;2022-09-28T18:39:36;17.50;53.40
44537;DHT22;30245;51.966;6.292;2022-09-28T18:42:01;17.40;53.30
44537;DHT22;30245;51.966;6.292;2022-09-28T18:44:27;17.50;54.00
44537;DHT22;30245;51.966;6.292;2022-09-28T18:46:53;17.40;53.30
44537;DHT22;30245;51.966;6.292;2022-09-28T18:49:20;17.40;53.40
44537;DHT22;30245;51.966;6.292;2022-09-28T18:51:46;17.40;54.00
44537;DHT22;30245;51.966;6.292;2022-09-28T18:54:12;17.40;53.30
44537;DHT22;30245;51.966;6.292;2022-09-28T18:56:37;17.40;53.30
44537;DHT22;30245;51.966;6.292;2022-09-28T18:59:05;17.40;53.50